Flight Track Log - Related Links

Times and Time Zones

All times are in EDT time to prevent confusion due to time zone crossing. See the ERR781 flight status page for this flight to view local times or setup timezone preferences in your user account.

Time Position Orientation Groundspeed Altitude Reporting Facility
EDT Latitude Longitude Course Direction KTS MPH feet Rate Location/Type
Thu 05:24:44 PM 70.1167 -148.4167 180° South 180 207 3,400  Level Anchorage Center
Thu 05:25:45 PM 70.0667 -148.4167 180° South 180 207 4,900 1,537 Climbing Anchorage Center
Thu 05:26:45 PM 70.0167 -148.4167 180° South 180 207 6,500 1,537 Climbing Anchorage Center
Thu 05:27:46 PM 69.9667 -148.4167 180° South 200 230 8,000 1,488 Climbing Anchorage Center
Thu 05:28:46 PM 69.9167 -148.4167 180° South 190 219 9,500 1,450 Climbing Anchorage Center
Thu 05:29:00 PM 69.8752 -148.4167 180° South  Level FlightAware Approximate
Thu 05:29:46 PM 69.8667 -148.4167 180° South 200 230 10,900  Level Anchorage Center
Thu 05:30:00 PM 69.8101 -148.4167 180° South  Level FlightAware Approximate
Thu 05:30:47 PM 69.8000 -148.4167 180° South 190 219 12,300  Level Anchorage Center
Thu 05:31:47 PM 69.7500 -148.4167 180° South 200 230 13,500 1,200 Climbing Anchorage Center
Thu 05:32:47 PM 69.7000 -148.4167 180° South 200 230 14,700 1,150 Climbing Anchorage Center
Thu 05:33:47 PM 69.6333 -148.4167 180° South 200 230 15,800 1,100 Climbing Anchorage Center
Thu 05:34:47 PM 69.5833 -148.4167 180° South 210 242 16,900 992 Climbing Anchorage Center
Thu 05:35:48 PM 69.5167 -148.4167 180° South 210 242 17,800 694 Climbing Anchorage Center
Thu 05:36:48 PM 69.4667 -148.4167 180° South 210 242 18,300 694 Climbing Anchorage Center
Thu 05:37:49 PM 69.4000 -148.4167 180° South 210 242 19,200 843 Climbing Anchorage Center
Thu 05:38:49 PM 69.3500 -148.4333 187° South 200 230 20,000 829 Climbing Anchorage Center
Thu 05:40:00 PM 69.2730 -148.4333 180° South  Level FlightAware Approximate
Thu 05:40:50 PM 69.2333 -148.4167 180° South 200 230 21,700  Level Anchorage Center
Thu 05:41:50 PM 69.1833 -148.4333 187° South 210 242 22,500 650 Climbing Anchorage Center
Thu 05:42:50 PM 69.1167 -148.4333 180° South 200 230 23,000 248 Climbing Anchorage Center
Thu 05:43:51 PM 69.0500 -148.4333 180° South 240 276 23,000  Level Anchorage Center
Thu 05:44:51 PM 68.9833 -148.4333 180° South 250 288 23,000  Level Anchorage Center
Thu 05:45:51 PM 68.9167 -148.4333 180° South 260 299 23,000  Level Anchorage Center
Thu 05:46:52 PM 68.8500 -148.4333 180° South 240 276 23,000  Level Anchorage Center
Thu 05:47:52 PM 68.7833 -148.4333 180° South 260 299 23,000  Level Anchorage Center
Thu 05:48:52 PM 68.7167 -148.4333 180° South 250 288 23,000  Level Anchorage Center
Thu 05:49:53 PM 68.6333 -148.4333 180° South 250 288 23,000  Level Anchorage Center
Thu 05:50:53 PM 68.5667 -148.4500 185° South 250 288 23,000  Level Anchorage Center
Thu 05:51:53 PM 68.5000 -148.4500 180° South 250 288 23,000  Level Anchorage Center
Thu 05:52:54 PM 68.4333 -148.4500 180° South 250 288 23,000  Level Anchorage Center
Thu 05:53:54 PM 68.3667 -148.4500 180° South 250 288 23,000  Level Anchorage Center
Thu 05:54:54 PM 68.3000 -148.4500 180° South 250 288 23,000  Level Anchorage Center
Thu 05:55:54 PM 68.2167 -148.4500 180° South 250 288 23,000  Level Anchorage Center
Thu 05:56:55 PM 68.1500 -148.4500 180° South 260 299 23,000  Level Anchorage Center
Thu 05:57:55 PM 68.0833 -148.4500 180° South 250 288 23,000  Level Anchorage Center
Thu 05:58:55 PM 68.0000 -148.4500 180° South 260 299 23,000  Level Anchorage Center
Thu 05:59:56 PM 67.9333 -148.4500 180° South 260 299 23,000  Level Anchorage Center
Thu 06:00:56 PM 67.8667 -148.4500 180° South 260 299 23,000  Level Anchorage Center
Thu 06:01:56 PM 67.7833 -148.4667 184° South 250 288 23,000  Level Anchorage Center
Thu 06:02:57 PM 67.7167 -148.4667 180° South 250 288 23,000  Level Anchorage Center
Thu 06:03:57 PM 67.6500 -148.4500 175° South 270 311 23,000  Level Anchorage Center
Thu 06:04:58 PM 67.5667 -148.4667 184° South 270 311 23,000  Level Anchorage Center
Thu 06:05:58 PM 67.5000 -148.4667 180° South 250 288 23,000  Level Anchorage Center
Thu 06:06:58 PM 67.4333 -148.4500 175° South 260 299 23,000  Level Anchorage Center
Thu 06:07:59 PM 67.3500 -148.4333 176° South 290 334 23,000  Level Anchorage Center
Thu 06:08:59 PM 67.2833 -148.4167 174° South 260 299 23,000  Level Anchorage Center
Thu 06:09:59 PM 67.2167 -148.4000 174° South 260 299 23,000  Level Anchorage Center
Thu 06:11:00 PM 67.1333 -148.4000 180° South 280 322 23,000  Level Anchorage Center
Thu 06:12:00 PM 67.0500 -148.3833 176° South 270 311 23,000  Level Anchorage Center
Thu 06:13:00 PM 66.9667 -148.3667 176° South 270 311 23,000  Level Anchorage Center
Thu 06:14:01 PM 66.9000 -148.3500 174° South 270 311 23,000  Level Anchorage Center
Thu 06:15:01 PM 66.8167 -148.3333 175° South 280 322 23,000  Level Anchorage Center
Thu 06:16:01 PM 66.7333 -148.3333 180° South 260 299 23,000  Level Anchorage Center
Thu 06:17:01 PM 66.6667 -148.3167 174° South 280 322 23,000  Level Anchorage Center
Thu 06:18:02 PM 66.5833 -148.3000 175° South 280 322 23,000  Level Anchorage Center
Thu 06:19:02 PM 66.5167 -148.2833 174° South 270 311 23,000  Level Anchorage Center
Thu 06:20:02 PM 66.4333 -148.2667 175° South 280 322 23,000  Level Anchorage Center
Thu 06:21:03 PM 66.3667 -148.2500 174° South 270 311 23,000  Level Anchorage Center
Thu 06:22:03 PM 66.3000 -148.2333 174° South 280 322 23,000 -350 Level Anchorage Center
Thu 06:23:03 PM 66.2000 -148.2333 180° South 270 311 22,300 -893 Descending Anchorage Center
Thu 06:24:04 PM 66.1500 -148.2333 180° South 280 322 21,200 -1,240 Descending Anchorage Center
Thu 06:25:04 PM 66.0333 -148.2000 173° South 290 334 19,800 -1,240 Descending Anchorage Center
Thu 06:26:05 PM 65.9500 -148.1833 175° South 300 345 18,700 -1,140 Descending Anchorage Center
Thu 06:27:05 PM 65.8667 -148.1667 175° South 300 345 17,500 -1,250 Descending Anchorage Center
Thu 06:28:05 PM 65.7833 -148.1667 180° South 300 345 16,200 -1,289 Descending Anchorage Center
Thu 06:29:06 PM 65.7000 -148.1500 175° South 290 334 14,900 -1,388 Descending Anchorage Center
Thu 06:30:06 PM 65.6333 -148.1333 174° South 290 334 13,400 -1,450 Descending Anchorage Center
Thu 06:31:06 PM 65.5500 -148.1167 175° South 280 322 12,000 -1,438 Descending Anchorage Center
Thu 06:32:07 PM 65.4667 -148.1000 175° South 280 322 10,500 -1,475 Descending Anchorage Center
Thu 06:34:00 PM 65.3425 -148.0845 177° South  Level FlightAware Approximate
Thu 06:41:00 PM 64.8812 -148.0167 180° South  Level FlightAware Approximate
Thu 06:42:00 PM 64.8155 -148.0039 174° South  Level FlightAware Approximate
Thu 06:43:00 PM 64.8000 -147.8814 90° East  Level FlightAware Approximate
Thu 06:44:00 PM 64.8000 -147.8500 90° East  Level FlightAware Approximate
Thu 06:45:00 PM 64.8151 -147.8564 90° East  Level Estimated
Thu 06:46:00 PM 64.8151 -147.8564 90° East  Level Estimated
Thu 06:47:00 PM 64.8151 -147.8564 90° East  Level Estimated
Thu 06:48:00 PM 64.8151 -147.8564 90° East  Level Estimated
Thu 06:49:00 PM 64.8151 -147.8564 90° East  Level Estimated
Thu 06:50:00 PM 64.8151 -147.8564 90° East  Level Estimated
Thu 06:51:00 PM 64.8151 -147.8564 90° East  Level Estimated
Thu 06:52:00 PM 64.8151 -147.8564 90° East  Level Estimated
Thu 06:53:00 PM 64.8151 -147.8564 90° East  Level Estimated
Thu 06:54:00 PM 64.8151 -147.8564 90° East  Level Estimated
Thu 06:55:00 PM 64.8151 -147.8564 90° East  Level Estimated
Thu 06:56:00 PM 64.8151 -147.8564 90° East  Level Estimated
Thu 06:57:00 PM 64.8151 -147.8564 90° East  Level Estimated
Thu 06:58:00 PM 64.8151 -147.8564 90° East  Level Estimated
Thu 06:59:00 PM 64.8151 -147.8564 90° East  Level Estimated
Thu 07:00:00 PM 64.8151 -147.8564 90° East  Level Estimated
Thu 07:01:00 PM 64.8151 -147.8564 90° East  Level Estimated
Thu 07:02:00 PM 64.8151 -147.8564 90° East  Level Estimated

Login

Don't have an account? Register now (free) for customized features, flight alerts, and more!